Time;durP1;ratioP1;P1;durP2;ratioP2;P2;SDS_P1;SDS_P2;PMS_P1;PMS_P2;Temp;Humidity;BMP_temperature;BMP_pressure;BME280_temperature;BME280_humidity;BME280_pressure;Samples;Min_cycle;Max_cycle;Signal;HPM_P1;HPM_P2
2021/11/07 00:02:47;;;;;;;5.10;2.08;;;;;;;9.02;53.96;101591.03;4993252;28;20042;-77
2021/11/07 00:05:39;;;;;;;3.83;2.75;;;;;;;9.04;53.81;101588.03;4997232;28;20063;-77
2021/11/07 00:08:37;;;;;;;4.30;2.45;;;;;;;8.98;53.98;101587.28;4995238;28;20080;-76
2021/11/07 00:11:32;;;;;;;5.53;2.42;;;;;;;9.14;55.44;101582.53;4992495;28;20045;-75
2021/11/07 00:14:17;;;;;;;4.18;2.63;;;;;;;8.99;52.92;101580.75;4993989;28;20042;-75
2021/11/07 00:17:02;;;;;;;4.05;2.10;;;;;;;8.82;52.91;101585.78;4994407;28;20053;-75
2021/11/07 00:19:55;;;;;;;2.55;1.70;;;;;;;8.72;54.45;101579.59;4998413;28;20054;-74
2021/11/07 00:25:56;;;;;;;5.28;2.25;;;;;;;8.69;55.20;101564.69;4991950;28;20057;-75
2021/11/07 00:28:49;;;;;;;4.40;2.10;;;;;;;8.50;54.15;101569.97;4991703;28;20421;-75
2021/11/07 00:32:05;;;;;;;5.22;1.95;;;;;;;8.41;55.18;101574.38;4993666;28;20041;-76
2021/11/07 00:37:48;;;;;;;5.25;2.58;;;;;;;8.73;55.83;101575.81;4990599;28;20049;-76
2021/11/07 00:40:58;;;;;;;3.58;2.08;;;;;;;8.84;55.02;101583.56;4995006;28;20573;-76
2021/11/07 00:46:53;;;;;;;4.97;1.98;;;;;;;8.54;54.82;101572.91;4991978;28;20069;-74
2021/11/07 00:49:46;;;;;;;5.80;1.92;;;;;;;8.64;54.38;101577.47;4977240;28;20053;-75
2021/11/07 00:52:49;;;;;;;3.45;2.05;;;;;;;8.58;55.15;101563.94;4976703;28;20045;-78
2021/11/07 00:56:08;;;;;;;3.22;1.90;;;;;;;8.65;56.12;101551.97;4991546;28;20049;-77
2021/11/07 00:58:54;;;;;;;3.17;2.00;;;;;;;8.50;54.67;101555.59;4990290;28;20049;-78
2021/11/07 01:01:44;;;;;;;3.40;2.33;;;;;;;8.58;56.24;101552.31;4987845;28;20053;-78
2021/11/07 01:04:30;;;;;;;3.40;1.98;;;;;;;8.65;55.63;101535.72;4977234;28;20050;-77
2021/11/07 01:07:16;;;;;;;8.95;2.05;;;;;;;8.62;54.22;101533.56;4992891;28;20519;-77
2021/11/07 01:10:02;;;;;;;6.63;2.15;;;;;;;8.54;54.01;101535.78;4997975;28;20436;-77
2021/11/07 01:12:47;;;;;;;3.03;1.75;;;;;;;8.64;55.29;101534.09;4996488;28;20504;-77
2021/11/07 01:15:32;;;;;;;4.40;1.52;;;;;;;8.69;56.04;101534.88;4993295;28;20054;-76
2021/11/07 01:18:17;;;;;;;3.28;1.50;;;;;;;8.65;55.46;101525.69;4990902;28;20049;-77
2021/11/07 01:21:02;;;;;;;3.00;1.42;;;;;;;8.62;55.76;101515.41;4995527;28;20053;-76
2021/11/07 01:24:35;;;;;;;2.65;1.75;;;;;;;8.43;55.31;101517.97;4995355;28;20122;-77
2021/11/07 01:27:09;;;;;;;7.82;2.28;;;;;;;8.43;56.50;101511.75;4991137;28;20050;-76
2021/11/07 01:29:57;;;;;;;2.33;1.70;;;;;;;8.39;56.24;101506.06;4995237;28;20053;-76
2021/11/07 01:32:47;;;;;;;3.88;2.17;;;;;;;8.45;56.85;101488.69;4993113;28;20515;-76
2021/11/07 01:38:35;;;;;;;5.10;2.30;;;;;;;8.43;57.19;101480.03;4993489;28;20045;-75
2021/11/07 01:41:27;;;;;;;3.53;2.30;;;;;;;8.45;56.74;101479.75;5009466;23;20093;-80
2021/11/07 01:44:14;;;;;;;3.85;2.25;;;;;;;8.48;56.81;101482.69;5012732;28;20064;-80
2021/11/07 01:46:58;;;;;;;3.60;1.80;;;;;;;8.33;55.74;101482.03;5017853;28;20522;-80
2021/11/07 01:49:44;;;;;;;2.35;1.98;;;;;;;8.26;57.09;101478.78;5015129;28;20125;-79
2021/11/07 01:52:34;;;;;;;2.42;1.40;;;;;;;8.32;56.60;101477.69;5015274;28;20069;-79
2021/11/07 01:55:20;;;;;;;3.28;1.73;;;;;;;8.24;57.08;101470.91;5021731;28;20049;-79
2021/11/07 01:58:05;;;;;;;3.15;1.50;;;;;;;8.42;57.38;101462.16;5018201;28;20547;-79
2021/11/07 02:00:51;;;;;;;2.50;1.48;;;;;;;8.38;55.94;101450.25;5019067;28;20053;-78
2021/11/07 02:03:37;;;;;;;3.08;1.58;;;;;;;8.38;57.14;101457.59;5001188;28;20037;-79
2021/11/07 02:06:22;;;;;;;2.55;1.52;;;;;;;8.34;55.96;101457.31;5014716;28;20432;-79
2021/11/07 02:09:07;;;;;;;3.15;1.73;;;;;;;8.35;56.33;101452.72;5016998;28;20052;-79
2021/11/07 02:11:52;;;;;;;7.05;1.27;;;;;;;8.46;56.73;101467.81;5021025;28;20052;-79
2021/11/07 02:14:38;;;;;;;5.50;1.35;;;;;;;8.44;56.71;101459.97;5024334;28;20057;-80
2021/11/07 02:17:23;;;;;;;4.60;1.73;;;;;;;8.36;56.47;101451.63;5017109;28;20048;-80
2021/11/07 02:20:14;;;;;;;3.60;2.38;;;;;;;8.39;56.92;101441.03;5022539;28;20057;-80
2021/11/07 02:23:13;;;;;;;2.45;1.30;;;;;;;8.30;56.55;101440.03;5023324;28;20041;-80
2021/11/07 02:26:03;;;;;;;4.93;1.35;;;;;;;8.14;57.13;101443.88;5020070;28;20057;-80
2021/11/07 02:28:48;;;;;;;3.75;1.48;;;;;;;8.40;57.99;101439.13;5011576;28;20531;-79
2021/11/07 02:31:33;;;;;;;3.17;1.15;;;;;;;8.39;57.37;101449.16;5005227;28;20053;-80
2021/11/07 02:34:18;;;;;;;2.40;1.30;;;;;;;8.34;56.31;101453.81;5006109;28;20049;-80
2021/11/07 02:37:03;;;;;;;2.88;1.35;;;;;;;8.27;55.96;101461.44;5018854;28;20053;-80
2021/11/07 02:39:48;;;;;;;2.38;1.10;;;;;;;8.18;56.98;101466.59;5025656;28;20049;-79
2021/11/07 02:42:43;;;;;;;4.22;1.38;;;;;;;8.18;57.21;101465.81;5023277;28;20048;-79
2021/11/07 02:45:29;;;;;;;7.40;1.40;;;;;;;8.22;56.72;101458.75;5017792;28;20447;-80
2021/11/07 02:48:14;;;;;;;2.35;1.63;;;;;;;8.28;57.65;101446.78;5024306;28;20048;-80
2021/11/07 02:50:59;;;;;;;2.75;1.50;;;;;;;8.34;59.49;101442.97;5021907;28;20060;-79
2021/11/07 02:53:44;;;;;;;;;;;;;;;8.37;57.84;101432.41;5019101;28;20435;-79
2021/11/07 02:56:29;;;;;;;2.55;1.55;;;;;;;8.47;57.60;101435.03;5014481;28;19913;-80
2021/11/07 02:59:31;;;;;;;3.83;1.60;;;;;;;8.52;57.51;101440.41;5021023;28;20428;-79
2021/11/07 03:02:16;;;;;;;3.20;1.77;;;;;;;8.49;57.08;101440.94;5007330;28;20076;-80
2021/11/07 03:05:01;;;;;;;2.55;1.35;;;;;;;8.46;57.14;101432.59;5023282;28;20053;-78
2021/11/07 03:07:46;;;;;;;1.63;1.00;;;;;;;8.41;57.67;101441.56;5015545;28;20121;-79
2021/11/07 03:10:31;;;;;;;2.35;1.20;;;;;;;8.39;57.41;101443.75;5006945;28;20130;-78
2021/11/07 03:13:17;;;;;;;1.98;1.35;;;;;;;8.42;57.94;101428.84;5012650;28;20037;-79
2021/11/07 03:16:11;;;;;;;4.28;1.20;;;;;;;8.38;58.87;101439.41;5026089;28;20052;-79
2021/11/07 03:18:56;;;;;;;2.70;1.42;;;;;;;8.45;58.82;101450.75;5023929;28;20049;-79
2021/11/07 03:21:42;;;;;;;3.75;1.55;;;;;;;8.56;58.41;101451.47;5025067;28;20412;-79
2021/11/07 03:24:27;;;;;;;2.20;1.20;;;;;;;8.56;58.79;101452.28;5010551;28;20057;-79
2021/11/07 03:27:18;;;;;;;3.28;1.02;;;;;;;8.63;57.24;101462.00;5011313;28;20396;-80
2021/11/07 03:30:10;;;;;;;7.25;1.30;;;;;;;8.62;57.49;101457.66;5021832;28;20049;-80
2021/11/07 03:33:08;;;;;;;3.78;1.13;;;;;;;8.62;56.94;101460.38;5022562;28;20049;-80
2021/11/07 03:35:54;;;;;;;1.65;1.20;;;;;;;8.79;57.96;101449.91;5012643;28;20052;-80
2021/11/07 03:38:39;;;;;;;2.05;1.23;;;;;;;8.72;57.75;101439.41;5021094;28;20044;-80
2021/11/07 03:41:23;;;;;;;1.17;0.98;;;;;;;8.73;58.73;101435.63;5021936;28;20053;-81
2021/11/07 03:44:10;;;;;;;2.28;1.08;;;;;;;8.81;59.14;101440.41;5021277;28;20420;-81
2021/11/07 03:46:57;;;;;;;2.72;1.48;;;;;;;8.74;57.96;101439.09;5022649;28;20041;-79
2021/11/07 03:49:42;;;;;;;2.45;1.42;;;;;;;8.74;57.38;101441.81;5015017;28;20052;-79
2021/11/07 03:52:27;;;;;;;2.75;1.20;;;;;;;8.68;57.74;101442.97;5001247;28;20045;-79
2021/11/07 03:55:13;;;;;;;1.33;1.23;;;;;;;8.71;58.67;101453.25;5018433;28;20057;-79
2021/11/07 03:57:57;;;;;;;5.53;1.58;;;;;;;8.80;58.99;101457.78;5011735;28;20448;-79
2021/11/07 04:00:43;;;;;;;1.52;0.93;;;;;;;8.69;59.57;101450.81;5023295;28;20057;-79
2021/11/07 04:03:27;;;;;;;2.45;1.70;;;;;;;8.67;59.61;101442.19;5012778;28;20048;-79
2021/11/07 04:06:13;;;;;;;2.78;1.10;;;;;;;8.75;60.21;101429.88;5019504;28;20057;-79
2021/11/07 04:08:57;;;;;;;3.83;1.48;;;;;;;8.80;59.70;101432.56;5007828;28;20045;-79
2021/11/07 04:11:43;;;;;;;1.98;1.00;;;;;;;8.93;60.60;101448.19;5011366;28;20057;-78
2021/11/07 04:14:33;;;;;;;4.18;2.08;;;;;;;8.93;60.02;101453.59;5008426;28;20077;-79
2021/11/07 04:17:18;;;;;;;4.20;1.55;;;;;;;8.92;60.16;101455.50;5019925;28;20069;-79
2021/11/07 04:20:08;;;;;;;2.30;1.30;;;;;;;8.93;59.17;101459.84;5020388;28;20053;-79
2021/11/07 04:22:53;;;;;;;2.00;1.38;;;;;;;8.93;59.31;101473.41;5020151;28;20052;-79
2021/11/07 04:25:39;;;;;;;3.50;2.17;;;;;;;8.98;59.44;101486.09;5005441;28;20057;-79
2021/11/07 04:28:24;;;;;;;7.00;1.45;;;;;;;9.02;58.84;101498.00;5008811;28;20060;-79
2021/11/07 04:31:09;;;;;;;2.45;1.02;;;;;;;8.97;58.89;101506.19;5015510;28;20045;-79
2021/11/07 04:33:53;;;;;;;1.23;0.82;;;;;;;9.10;59.77;101500.06;5023845;28;20056;-79
2021/11/07 04:36:39;;;;;;;1.67;1.08;;;;;;;9.10;59.51;101478.38;5020607;28;20053;-79
2021/11/07 04:39:25;;;;;;;4.13;1.05;;;;;;;8.94;58.84;101463.34;5013774;28;20053;-79
2021/11/07 04:42:10;;;;;;;2.83;1.40;;;;;;;8.98;60.23;101464.41;5017194;28;20041;-79
2021/11/07 04:44:56;;;;;;;3.50;1.50;;;;;;;8.96;59.45;101472.00;5008034;28;20061;-79
2021/11/07 04:47:41;;;;;;;1.75;1.15;;;;;;;9.04;60.67;101476.78;5003255;28;20053;-80
2021/11/07 04:50:26;;;;;;;2.42;1.40;;;;;;;9.05;60.33;101462.16;5014995;28;20049;-80
2021/11/07 04:53:11;;;;;;;3.42;1.00;;;;;;;9.04;60.16;101452.38;5024184;28;20404;-80
2021/11/07 04:55:56;;;;;;;2.53;1.20;;;;;;;9.08;59.74;101433.66;5022866;28;20049;-80
2021/11/07 04:58:40;;;;;;;1.25;1.05;;;;;;;9.08;59.99;101426.31;5021340;28;20113;-80
2021/11/07 05:01:26;;;;;;;1.30;0.98;;;;;;;9.09;60.62;101414.38;5018637;28;20056;-79
2021/11/07 05:04:11;;;;;;;4.22;1.42;;;;;;;9.07;60.57;101402.19;5019752;28;20163;-79
2021/11/07 05:06:56;;;;;;;1.73;0.90;;;;;;;9.03;59.71;101393.81;5018453;28;20061;-79
2021/11/07 05:09:41;;;;;;;1.17;0.98;;;;;;;9.05;59.90;101397.03;5019622;28;20045;-79
2021/11/07 05:12:28;;;;;;;1.77;1.10;;;;;;;9.11;59.77;101376.91;5015430;28;20049;-79
2021/11/07 05:15:13;;;;;;;1.10;0.90;;;;;;;9.12;60.00;101375.81;5019415;28;20518;-79
2021/11/07 05:17:58;;;;;;;2.10;0.98;;;;;;;9.14;59.03;101370.09;5023364;28;20058;-80
2021/11/07 05:20:43;;;;;;;1.05;0.75;;;;;;;9.20;58.15;101364.31;5021291;28;20053;-80
2021/11/07 05:23:29;;;;;;;1.90;1.10;;;;;;;9.24;58.25;101364.56;5019318;28;20110;-80
2021/11/07 05:26:14;;;;;;;4.30;2.00;;;;;;;9.28;56.59;101358.25;5022579;28;20053;-80
2021/11/07 05:28:59;;;;;;;4.00;1.08;;;;;;;9.31;57.70;101354.13;5020437;28;20052;-80
2021/11/07 05:31:44;;;;;;;1.92;0.98;;;;;;;9.40;56.81;101371.38;5019362;28;20053;-79
2021/11/07 05:34:29;;;;;;;3.95;1.10;;;;;;;9.37;56.42;101370.06;5022146;28;20052;-79
2021/11/07 05:37:14;;;;;;;13.60;5.43;;;;;;;9.38;55.73;101366.25;5022302;28;20117;-79
2021/11/07 05:39:59;;;;;;;7.18;3.70;;;;;;;9.35;55.35;101366.00;5024541;28;20049;-79
2021/11/07 05:42:46;;;;;;;2.45;1.20;;;;;;;9.32;56.36;101362.00;5018553;28;20448;-79
2021/11/07 05:45:32;;;;;;;2.33;1.40;;;;;;;9.34;56.15;101378.81;5008697;28;20056;-79
2021/11/07 05:48:17;;;;;;;5.20;1.42;;;;;;;9.38;56.26;101393.41;5026102;28;20045;-79
2021/11/07 05:51:02;;;;;;;1.30;1.00;;;;;;;9.40;56.33;101385.75;5014176;28;20052;-79
2021/11/07 05:53:48;;;;;;;17.63;7.03;;;;;;;9.45;56.67;101385.69;5025190;28;20049;-79
2021/11/07 05:56:33;;;;;;;39.50;15.48;;;;;;;9.44;56.72;101375.97;5019156;28;20060;-80
2021/11/07 05:59:17;;;;;;;27.13;11.43;;;;;;;9.41;56.42;101373.00;5005868;28;20061;-79
2021/11/07 06:02:02;;;;;;;;;;;;;;;9.29;55.83;101383.50;5020759;28;20053;-80
2021/11/07 06:04:48;;;;;;;22.20;8.02;;;;;;;9.27;56.50;101364.78;5026576;28;19918;-80
2021/11/07 06:07:33;;;;;;;18.83;7.57;;;;;;;9.33;57.07;101365.53;5015917;28;20052;-80
2021/11/07 06:10:19;;;;;;;7.75;2.55;;;;;;;9.16;56.20;101360.56;5019438;28;20053;-76
2021/11/07 06:13:04;;;;;;;8.60;3.40;;;;;;;9.22;56.62;101355.88;5014230;28;20049;-79
2021/11/07 06:15:49;;;;;;;3.15;1.50;;;;;;;9.25;56.51;101356.09;5012028;28;20049;-77
2021/11/07 06:18:34;;;;;;;2.17;1.50;;;;;;;9.22;56.46;101362.13;5012073;28;20057;-77
2021/11/07 06:21:18;;;;;;;4.28;2.00;;;;;;;9.19;56.57;101349.16;5009902;28;20423;-77
2021/11/07 06:24:07;;;;;;;5.45;2.00;;;;;;;9.22;57.15;101356.69;5013243;28;20049;-77
2021/11/07 06:26:55;;;;;;;6.43;1.95;;;;;;;9.27;56.67;101375.63;5017184;28;20053;-77
2021/11/07 06:29:41;;;;;;;8.15;2.50;;;;;;;9.29;56.11;101387.00;5017098;28;20056;-77
2021/11/07 06:32:26;;;;;;;15.63;5.28;;;;;;;9.37;57.30;101370.06;5013776;28;20041;-77
2021/11/07 06:35:13;;;;;;;6.00;2.38;;;;;;;9.19;58.31;101368.13;5018216;28;20539;-77
2021/11/07 06:37:58;;;;;;;8.50;2.72;;;;;;;9.24;58.41;101359.94;5000828;28;20437;-77
2021/11/07 06:40:42;;;;;;;5.80;2.25;;;;;;;9.23;58.26;101362.94;4995601;28;20057;-77
2021/11/07 06:43:27;;;;;;;7.88;2.60;;;;;;;9.17;57.45;101381.16;5016385;28;20061;-77
2021/11/07 06:46:12;;;;;;;3.95;1.70;;;;;;;9.27;58.23;101386.47;5010216;28;20049;-77
2021/11/07 06:48:58;;;;;;;4.32;1.63;;;;;;;9.33;59.48;101381.81;4997789;28;20041;-76
2021/11/07 06:51:44;;;;;;;3.50;1.65;;;;;;;9.34;60.09;101395.09;5006668;28;20053;-77
2021/11/07 06:54:28;;;;;;;4.15;2.63;;;;;;;9.32;60.38;101383.72;5015781;28;20049;-77
2021/11/07 06:57:13;;;;;;;4.32;1.58;;;;;;;9.26;61.59;101382.16;5011899;28;20056;-77
2021/11/07 06:59:58;;;;;;;3.08;1.83;;;;;;;9.31;61.36;101387.50;5009191;28;20535;-77
2021/11/07 07:02:44;;;;;;;6.88;1.50;;;;;;;9.34;61.33;101386.94;5011914;28;20045;-77
2021/11/07 07:05:29;;;;;;;3.78;2.22;;;;;;;9.36;60.79;101389.34;5012519;28;20065;-77
2021/11/07 07:08:20;;;;;;;4.28;1.60;;;;;;;9.37;60.85;101389.06;5013201;28;20048;-77
2021/11/07 07:11:09;;;;;;;3.85;2.85;;;;;;;9.39;61.03;101389.59;5005765;28;20539;-77
2021/11/07 07:14:00;;;;;;;7.60;2.10;;;;;;;9.42;61.20;101390.91;5008881;28;20610;-77
2021/11/07 07:20:09;;;;;;;4.88;2.70;;;;;;;9.53;61.30;101389.69;5007749;28;20065;-77
2021/11/07 07:35:02;;;;;;;3.28;1.75;;;;;;;9.45;60.90;101409.31;5011302;28;20531;-76
2021/11/07 07:37:47;;;;;;;5.30;2.17;;;;;;;9.46;61.11;101410.94;5011455;28;20057;-77
2021/11/07 07:40:32;;;;;;;11.45;1.23;;;;;;;9.51;60.71;101410.88;5006890;28;20053;-77
2021/11/07 07:43:18;;;;;;;;;;;;;;;9.54;61.37;101407.59;5019491;23;20072;-77
2021/11/07 07:46:07;;;;;;;3.70;1.90;;;;;;;9.55;61.30;101408.41;5003091;28;19917;-77
2021/11/07 07:48:54;;;;;;;2.38;1.77;;;;;;;9.52;61.53;101406.25;5005243;28;20413;-77
2021/11/07 07:51:39;;;;;;;9.30;1.90;;;;;;;9.58;62.37;101405.09;4994731;28;20050;-77
2021/11/07 07:54:25;;;;;;;5.03;1.98;;;;;;;9.60;62.99;101405.63;5016482;28;20053;-76
2021/11/07 07:57:09;;;;;;;3.95;1.85;;;;;;;9.67;62.76;101396.00;5014911;28;20558;-77
2021/11/07 07:59:54;;;;;;;4.40;1.60;;;;;;;9.71;62.21;101416.03;5013912;28;20057;-77
2021/11/07 08:02:40;;;;;;;4.43;1.38;;;;;;;9.74;61.87;101415.47;5009685;28;20535;-76
2021/11/07 08:05:24;;;;;;;3.22;2.15;;;;;;;9.83;61.25;101421.06;5006458;28;20420;-77
2021/11/07 08:08:09;;;;;;;7.07;2.38;;;;;;;9.84;61.65;101411.81;5003579;28;20053;-78
2021/11/07 08:10:54;;;;;;;14.02;5.53;;;;;;;9.79;61.44;101411.88;5007667;28;20065;-78
2021/11/07 08:13:39;;;;;;;21.95;5.85;;;;;;;9.73;61.74;101416.56;5012733;28;20037;-79
2021/11/07 08:16:26;;;;;;;12.05;4.50;;;;;;;9.81;60.89;101409.66;5014024;28;20048;-77
2021/11/07 08:19:11;;;;;;;8.80;4.53;;;;;;;9.86;60.98;101404.97;5008696;28;20053;-77
2021/11/07 08:21:56;;;;;;;9.93;3.22;;;;;;;9.91;60.82;101404.09;5011831;28;20045;-77
2021/11/07 08:24:41;;;;;;;6.60;2.90;;;;;;;9.92;60.25;101397.56;5009191;28;20048;-77
2021/11/07 08:27:26;;;;;;;9.57;3.65;;;;;;;10.01;61.01;101406.66;5009459;28;20060;-77
2021/11/07 08:30:14;;;;;;;6.65;3.53;;;;;;;10.05;60.67;101409.63;5015019;28;20056;-77
2021/11/07 08:33:00;;;;;;;7.70;3.92;;;;;;;10.04;59.92;101408.00;5012326;28;20049;-77
2021/11/07 08:35:46;;;;;;;5.05;2.42;;;;;;;10.07;59.90;101410.91;5007467;28;20045;-75
2021/11/07 08:38:37;;;;;;;3.70;2.35;;;;;;;10.09;59.57;101411.44;5018366;28;20412;-77
2021/11/07 08:41:23;;;;;;;9.88;2.80;;;;;;;10.18;59.91;101408.88;5007242;28;20049;-75
2021/11/07 09:05:56;;;;;;;2.83;1.90;;;;;;;10.56;56.52;101398.75;5016720;28;20040;-77
2021/11/07 09:08:41;;;;;;;5.35;2.15;;;;;;;10.57;56.20;101398.44;5010139;28;20053;-77
2021/11/07 09:11:26;;;;;;;1.95;1.05;;;;;;;10.61;55.72;101390.53;5009923;28;21469;-77
2021/11/07 09:14:11;;;;;;;8.65;2.03;;;;;;;10.69;60.27;101395.25;5017196;28;20408;-76
2021/11/07 09:16:57;;;;;;;1.95;1.55;;;;;;;11.69;56.52;101394.34;5017015;28;20057;-79
2021/11/07 09:19:45;;;;;;;4.03;2.00;;;;;;;11.73;55.13;101387.25;5015701;28;20420;-78
2021/11/07 09:22:52;;;;;;;8.43;2.03;;;;;;;11.74;54.48;101391.56;5015468;28;20057;-78
2021/11/07 09:25:45;;;;;;;6.53;2.15;;;;;;;11.54;52.21;101383.78;5007229;28;20052;-77
2021/11/07 09:28:34;;;;;;;3.97;1.58;;;;;;;11.44;53.24;101389.44;5009692;28;20053;-79
2021/11/07 09:34:22;;;;;;;5.95;2.13;;;;;;;11.62;58.99;101374.91;5013285;28;20058;-78
2021/11/07 09:37:13;;;;;;;5.15;2.80;;;;;;;11.61;56.98;101372.47;5020745;28;20056;-80
2021/11/07 09:40:04;;;;;;;2.38;1.27;;;;;;;11.56;54.20;101379.66;5019260;28;20041;-78
2021/11/07 09:48:29;;;;;;;15.77;2.22;;;;;;;12.16;64.20;101371.22;5008356;28;20073;-78
2021/11/07 09:51:18;;;;;;;6.38;1.98;;;;;;;12.43;63.37;101345.75;5010859;28;20061;-78
2021/11/07 09:54:04;;;;;;;20.27;2.40;;;;;;;12.58;62.24;101348.09;5017353;28;20068;-77
2021/11/07 09:56:51;;;;;;;13.57;2.35;;;;;;;12.66;59.59;101346.50;5016031;28;20049;-78
2021/11/07 09:59:37;;;;;;;21.10;2.60;;;;;;;12.75;62.11;101352.81;5020986;28;20056;-78
2021/11/07 10:02:23;;;;;;;14.82;2.40;;;;;;;12.82;62.20;101339.53;5018502;28;20044;-78
2021/11/07 10:05:10;;;;;;;16.85;3.20;;;;;;;12.96;61.41;101323.84;5009350;28;20057;-78
2021/11/07 10:08:00;;;;;;;14.63;1.92;;;;;;;13.10;60.85;101321.00;5018745;28;20049;-78
2021/11/07 10:11:02;;;;;;;12.27;2.70;;;;;;;13.12;59.88;101319.59;5014228;28;20523;-78
2021/11/07 10:13:59;;;;;;;21.95;2.13;;;;;;;13.13;59.69;101314.94;5011255;28;20041;-78
2021/11/07 10:16:50;;;;;;;19.63;2.50;;;;;;;13.15;59.40;101307.25;5016092;28;20056;-77
2021/11/07 10:19:39;;;;;;;5.38;2.15;;;;;;;12.86;50.41;101300.38;5012444;28;20065;-78
2021/11/07 10:22:24;;;;;;;2.92;1.27;;;;;;;12.60;48.92;101296.72;5016747;28;20052;-78
2021/11/07 10:25:17;;;;;;;15.50;1.17;;;;;;;12.47;47.36;101292.19;5017347;28;20053;-78
2021/11/07 10:28:12;;;;;;;3.08;1.15;;;;;;;12.41;48.22;101287.97;5015089;28;20408;-79
2021/11/07 10:31:19;;;;;;;;;;;;;;;12.44;52.63;101281.91;5021380;28;20044;-79
2021/11/07 10:40:27;;;;;;;4.13;2.15;;;;;;;12.28;50.95;101258.88;5012071;28;20048;-77
2021/11/07 10:52:23;;;;;;;3.70;1.35;;;;;;;12.40;48.78;101257.16;5013127;28;20045;-76
2021/11/07 10:55:20;;;;;;;3.10;1.20;;;;;;;12.38;48.67;101245.78;5005759;28;20050;-78
2021/11/07 10:58:05;;;;;;;11.82;3.35;;;;;;;12.59;51.96;101250.69;5011862;28;20057;-76
2021/11/07 11:00:50;;;;;;;20.02;5.38;;;;;;;12.54;50.14;101235.25;5012749;28;20053;-77
2021/11/07 11:03:42;;;;;;;4.57;1.65;;;;;;;12.61;50.60;101237.50;5009209;28;20053;-76
2021/11/07 11:06:28;;;;;;;3.60;1.67;;;;;;;12.55;49.18;101227.84;5011214;28;20049;-77
2021/11/07 11:09:20;;;;;;;52.47;6.50;;;;;;;12.61;54.42;101221.13;5011397;28;20053;-78
2021/11/07 11:12:08;;;;;;;51.22;5.82;;;;;;;12.83;58.05;101221.84;5009058;28;20512;-79
2021/11/07 11:15:24;;;;;;;82.72;8.10;;;;;;;13.34;56.98;101223.06;5013833;28;20044;-77
2021/11/07 11:18:24;;;;;;;84.55;6.55;;;;;;;13.38;54.02;101206.84;5013245;28;20049;-76
2021/11/07 11:41:18;;;;;;;9.48;4.13;;;;;;;13.16;52.68;101162.16;5012772;28;20538;-78
2021/11/07 11:44:03;;;;;;;15.32;4.30;;;;;;;13.12;49.42;101150.28;5015785;28;20053;-77
2021/11/07 11:56:40;;;;;;;4.25;2.28;;;;;;;13.12;46.63;101116.72;5004907;28;20072;-77
2021/11/07 11:59:33;;;;;;;14.60;4.30;;;;;;;13.21;52.75;101106.59;5006836;28;20065;-78
2021/11/07 12:03:10;;;;;;;7.57;3.33;;;;;;;13.26;53.85;101109.94;5015609;28;20060;-78
2021/11/07 12:05:47;;;;;;;4.65;1.95;;;;;;;13.23;47.45;101096.16;5007764;28;20057;-78
2021/11/07 12:11:29;;;;;;;2.33;1.20;;;;;;;13.22;47.18;101089.06;5015293;28;20049;-78
2021/11/07 12:14:18;;;;;;;7.80;1.73;;;;;;;13.27;49.63;101099.84;5012432;28;20049;-78
2021/11/07 12:17:09;;;;;;;5.90;2.40;;;;;;;13.33;49.38;101090.34;4991843;28;20053;-77
2021/11/07 12:19:54;;;;;;;2.15;1.10;;;;;;;13.34;48.68;101085.69;5010787;28;20064;-77
2021/11/07 12:22:39;;;;;;;1.35;0.50;;;;;;;13.31;45.91;101078.94;5009312;28;20053;-77
2021/11/07 12:25:28;;;;;;;4.65;1.63;;;;;;;13.37;46.62;101068.63;5006380;28;20436;-77
2021/11/07 12:28:15;;;;;;;8.73;1.63;;;;;;;13.74;55.06;101067.91;5012648;28;20041;-77
2021/11/07 12:31:04;;;;;;;5.30;2.63;;;;;;;13.79;47.28;101064.97;5010921;28;20061;-77
2021/11/07 12:34:16;;;;;;;2.90;1.88;;;;;;;13.68;44.27;101037.19;5010926;28;20041;-76
2021/11/07 12:40:37;;;;;;;2.42;0.90;;;;;;;13.55;45.69;101037.44;5016575;28;20053;-75
2021/11/07 12:43:34;;;;;;;8.43;1.63;;;;;;;13.68;50.36;101039.13;5007295;28;20052;-77
2021/11/07 12:46:35;;;;;;;16.10;2.65;;;;;;;13.83;54.18;101032.31;4995939;28;20049;-75
2021/11/07 12:49:22;;;;;;;10.25;2.50;;;;;;;14.01;53.34;101033.84;4993567;28;20062;-75
2021/11/07 12:52:06;;;;;;;9.27;2.33;;;;;;;14.04;49.06;101033.16;5011059;28;20049;-76
2021/11/07 12:54:51;;;;;;;2.72;1.27;;;;;;;14.05;50.52;101023.84;5013828;28;20065;-75
2021/11/07 12:57:37;;;;;;;6.63;2.08;;;;;;;14.03;49.17;101015.97;5011895;28;20053;-75
2021/11/07 13:00:22;;;;;;;9.15;1.67;;;;;;;13.98;49.65;101001.69;5017064;28;20053;-75
2021/11/07 13:03:09;;;;;;;13.93;1.83;;;;;;;13.99;51.49;101008.75;5012842;28;20072;-76
2021/11/07 13:05:54;;;;;;;4.43;0.95;;;;;;;13.94;45.79;100998.81;5011266;28;20049;-76
2021/11/07 13:08:43;;;;;;;1.15;0.80;;;;;;;14.01;45.51;101006.50;5019130;28;20084;-77
2021/11/07 13:11:38;;;;;;;4.35;1.30;;;;;;;14.08;47.13;101013.03;5015056;28;20052;-76
2021/11/07 13:14:50;;;;;;;0.98;0.73;;;;;;;13.99;47.23;101006.00;5005656;28;20041;-75
2021/11/07 13:21:07;;;;;;;2.35;1.15;;;;;;;13.92;46.18;101005.72;5012388;28;20045;-76
2021/11/07 13:27:18;;;;;;;33.80;4.63;;;;;;;14.20;53.93;100997.84;5009639;28;20053;-75
2021/11/07 13:30:06;;;;;;;10.63;2.33;;;;;;;14.20;48.57;100993.19;5014980;28;20530;-76
2021/11/07 13:32:51;;;;;;;2.53;0.70;;;;;;;13.89;44.99;100981.78;5005472;28;20053;-76
2021/11/07 13:35:36;;;;;;;1.55;0.75;;;;;;;13.70;44.05;100983.03;5004125;28;20058;-76
2021/11/07 13:38:21;;;;;;;;;;;;;;;13.58;43.67;100985.66;5010323;28;20064;-75
2021/11/07 13:41:18;;;;;;;1.80;0.80;;;;;;;13.48;43.77;100988.75;5013590;28;19913;-76
2021/11/07 13:44:04;;;;;;;2.80;0.85;;;;;;;13.46;44.15;100992.94;4998136;23;20062;-67
2021/11/07 13:47:04;;;;;;;1.20;0.70;;;;;;;13.48;44.66;100993.41;4983688;28;20122;-66
2021/11/07 13:49:51;;;;;;;2.08;1.10;;;;;;;13.45;44.46;100994.88;4994893;28;20053;-67
2021/11/07 13:52:39;;;;;;;3.40;1.35;;;;;;;13.54;44.91;100989.38;4992855;28;20530;-66
2021/11/07 13:55:28;;;;;;;2.38;1.30;;;;;;;13.56;43.96;100981.66;5000162;28;20049;-67
2021/11/07 13:58:15;;;;;;;1.45;1.05;;;;;;;13.57;43.63;100975.84;5001802;28;20434;-67
2021/11/07 14:01:12;;;;;;;3.05;1.80;;;;;;;13.55;42.72;100975.38;4995334;28;20057;-66
2021/11/07 14:03:57;;;;;;;4.28;2.75;;;;;;;13.54;42.86;100964.78;4996802;28;20073;-66
2021/11/07 14:06:43;;;;;;;3.42;1.63;;;;;;;13.50;43.20;100967.38;4996735;28;20057;-66
2021/11/07 14:09:28;;;;;;;;;;;;;;;13.53;42.88;100972.16;4982312;28;20049;-68
2021/11/07 14:12:34;;;;;;;16.70;8.68;;;;;;;13.49;43.91;100965.75;4990749;28;19914;-69
2021/11/07 14:15:30;;;;;;;16.92;9.25;;;;;;;13.43;43.18;100963.53;4996019;28;20057;-68
2021/11/07 14:18:20;;;;;;;;;;;;;;;13.38;43.25;100967.25;4999653;28;20072;-68
2021/11/07 14:21:05;;;;;;;5.25;3.33;;;;;;;13.37;43.74;100967.56;4992722;28;19913;-67
2021/11/07 14:27:17;;;;;;;2.35;1.38;;;;;;;13.29;45.60;100977.41;4994011;28;20054;-66
2021/11/07 14:29:57;;;;;;;6.93;3.50;;;;;;;13.25;46.84;100963.63;4994575;28;20446;-66
2021/11/07 14:32:44;;;;;;;10.98;5.13;;;;;;;13.24;47.09;100953.81;4995189;28;20061;-66
2021/11/07 14:35:31;;;;;;;8.68;5.18;;;;;;;13.22;47.11;100958.00;4978368;28;20049;-66
2021/11/07 14:38:32;;;;;;;11.77;5.72;;;;;;;13.24;47.16;100951.09;4976667;28;20400;-66
2021/11/07 14:41:25;;;;;;;8.18;4.85;;;;;;;13.19;47.36;100939.53;4991072;28;20403;-67
2021/11/07 14:44:27;;;;;;;10.65;6.10;;;;;;;13.20;47.72;100930.22;4995628;28;20065;-67
2021/11/07 14:47:22;;;;;;;12.20;6.03;;;;;;;13.14;47.92;100934.25;4993359;28;20046;-67
2021/11/07 14:53:32;;;;;;;13.48;6.47;;;;;;;13.07;49.25;100940.19;5000933;28;20041;-66
2021/11/07 15:02:01;;;;;;;;;;;;;;;12.91;50.42;100944.56;5000599;28;20062;-67
2021/11/07 15:04:55;;;;;;;11.80;5.75;;;;;;;12.88;50.79;100936.22;4985327;28;19914;-67
2021/11/07 15:07:48;;;;;;;11.75;6.55;;;;;;;12.87;51.30;100927.25;5000697;28;20546;-66
2021/11/07 15:16:44;;;;;;;14.50;6.53;;;;;;;12.84;53.31;100925.16;4988435;28;20050;-67
2021/11/07 15:19:40;;;;;;;20.70;6.50;;;;;;;12.83;53.50;100918.09;4986885;28;20068;-67
2021/11/07 15:22:46;;;;;;;42.30;9.02;;;;;;;12.83;53.14;100918.91;4996747;28;20046;-67
2021/11/07 15:25:38;;;;;;;35.20;8.88;;;;;;;12.80;53.18;100918.75;4997393;28;20403;-67
2021/11/07 15:28:27;;;;;;;33.28;7.65;;;;;;;12.79;53.12;100920.69;4989389;28;20057;-67